Wales, AK

5:01 AM AKDT on August 29, 2016 (GMT -0800)
Tin City LRRS | | Change Station

Elev 272 ft 65.56 °N, 167.92 °W | Updated 6 minutes ago

Mostly Cloudy
Mostly Cloudy
44 °F
Feels Like 37 °F
N
18
Wind Variable Wind from NNE

Today
High -- | Low -- °F
--% Chance of Precip.
Yesterday
High -- | Low -- °F
Precip. -- in
Pressure 30.40 in
Visibility 8.0 miles
Clouds Scattered Clouds 300 ft
Mostly Cloudy 2900 ft
Windchill 37 °F
Dew Point 43 °F
Humidity 95%
Rainfall 0.00 in
Snow Depth Not available.
7:41 AM 10:40 PM
Waning Crescent, 9% visible
METAR PATC 291255Z AUTO 02016KT 8SM SCT003 BKN029 07/06 A3039 RMK AO2 SLP292 T00690061
Pressure 30.40 in
Visibility 8.0 miles
Clouds Scattered Clouds 300 ft
Mostly Cloudy 2900 ft
Windchill 37 °F
Dew Point 43 °F
Humidity 95%
Rainfall 0.00 in
Snow Depth Not available.
7:41 AM 10:40 PM
Waning Crescent, 9% visible
METAR PATC 291255Z AUTO 02016KT 8SM SCT003 BKN029 07/06 A3039 RMK AO2 SLP292 T00690061

10-Day Weather Forecast

Almanac

Astronomy

Aug. 29, 2016 Rise Set
Actual Time
Civil Twilight
Nautical Twilight
Astronomical Twilight
Moon
Length of Visible Light
Length of Day
Tomorrow will be .
, % of the Moon is Illuminated

Today's Extremes

State Highs State Lows

Community

WunderPhotos

Upload Photos

1,935,812 photos uploaded!

WunderBlog® & News

Nearby

Air Quality

  Air Quality AQ Index Pollutant
Not available.

Snow Depth

Station Depth Elevation

Earthquake Activity

City Distance Mag. Time & Date
Minimum magnitude displayed is 2.5.

Coastal Water Temperatures

Place Temperature

Stations

Nearby Weather Stations

Station Location Temp. Windchill Dew Point Humidity Wind Precip. Elev Updated Type
                   

Watches & Warnings

There are currently no watches in effect.